Domov               UVHVVR             MKGP            O straneh              
ZDRAVSTVENO VARSTVO RASTLIN
  MREŽA AGROMET. POSTAJ
 ► PROGNOSTIČNA OBVESTILA
AGROMETEOROLOŠKI PODATKI -
ARSO
OBVLADOVANJE TVEGANJ ZARADI
NEUGODNIH VREMENSKIH RAZMER
  ► NARAVNE NESREČE
  ► SUŠA/MOČA
  ► NAMAKANJE
  ► ŽLED (gozdarstvo)
KARTOGRAFSKI PRIKAZI
SPLETNE POVEZAVE
PROJEKTI IN PUBLIKACIJE

AGROMETEOROLOŠKA MREŽA: VREMENSKE POSTAJE IN FENOLOŠKA OPAZOVANJA

Pregled podatkov za lokacijo Svečina, meteorološka postaja 25165

Pregled senzorjev na lokaciji

ID Ime Zadnja
vrednost
Datum
zadnje
spremembe
Tip
senzorja
4437 Omočenost lista (U) 3 U 25.3.2019 00:30 A730WET
4432 Padavine (mm) 0 mm 25.3.2019 00:30 Generic 0.2 mm
4436 Relativna vlaga 2 m (% RH) 57,24 % RH 25.3.2019 00:30 Generic 0 - 100 %
4435 Temperatura 2 m (°C) 11,11 °C 25.3.2019 00:30 Generic -40 - +60 °C

Pregled podatkov zadnjih 24 ur

Zap.
št.
Datum in čas Svečina
Omočenost
lista
Padavine Relativna
vlaga
2
m
Temperatura
2
m
1 25.3.2019 00:00
2 24.3.2019 23:30 3 0 57,2 11,1
3 24.3.2019 23:00 3 0 56,5 11,1
4 24.3.2019 22:30 3 0 55,3 11,3
5 24.3.2019 22:00 2 0 52,9 11,9
6 24.3.2019 21:30 2 0 51,3 12,5
7 24.3.2019 21:00 2 0 52 12,5
8 24.3.2019 20:30 2 0 48 13,3
9 24.3.2019 20:00 2 0 43,6 14,6
10 24.3.2019 19:30 2 0 41,2 15,4
11 24.3.2019 19:00 2 0 38,7 16,2
12 24.3.2019 18:30 2 0 36,1 17,1
13 24.3.2019 18:00 2 0 32,5 18,4
14 24.3.2019 17:30 2 0 30,9 19,4
15 24.3.2019 17:00 2 0 29,9 20,1
16 24.3.2019 16:30 2 0 28,8 20,5
17 24.3.2019 16:00 2 0 28 20,4
18 24.3.2019 15:30 2 0 28,1 20,4
19 24.3.2019 15:00 2 0 29,2 20,1
20 24.3.2019 14:30 2 0 30,1 20,2
21 24.3.2019 14:00 2 0 31,2 20
22 24.3.2019 13:30 2 0 31 20
23 24.3.2019 13:00 2 0 31,5 19,8
24 24.3.2019 12:30 2 0 32,6 19,5
25 24.3.2019 12:00 2 0 35 18,9
26 24.3.2019 11:30 2 0 38,6 18,2
27 24.3.2019 11:00 2 0 42,4 17,5
28 24.3.2019 10:30 2 0 44,4 16,7
29 24.3.2019 10:00 2 0 46,7 16,5
30 24.3.2019 09:30 3 0 52 14,7
31 24.3.2019 09:00 3 0 51 13,8
32 24.3.2019 08:30 3 0 52,1 12,9
33 24.3.2019 08:00 3 0 53 12,5
34 24.3.2019 07:30 3 0 61,8 9,5
35 24.3.2019 07:00 3 0 72 6,9
36 24.3.2019 06:30 3 0 75,3 6,1
37 24.3.2019 06:00 3 0 74,7 6,2
38 24.3.2019 05:30 3 0 74 6,3
39 24.3.2019 05:00 3 0 72,4 6,6
40 24.3.2019 04:30 3 0 73,3 6,4
41 24.3.2019 04:00 3 0 69,2 7,3
42 24.3.2019 03:30 3 0 68,8 7,3
43 24.3.2019 03:00 3 0 68,7 7,4
44 24.3.2019 02:30 3 0 70,2 7,2
45 24.3.2019 02:00 3 0 70,2 7,2
46 24.3.2019 01:30 3 0 66 8,1
47 24.3.2019 01:00 3 0 65,6 8,1
48 24.3.2019 00:30 3 0 64,7 8,3
© 2011 Ministrstvo za kmetijstvo, gozdarstvo in prehrano. Vse pravice pridržane.